Time;durP1;ratioP1;P1;durP2;ratioP2;P2;SDS_P1;SDS_P2;PMS_P1;PMS_P2;Temp;Humidity;BMP_temperature;BMP_pressure;BME280_temperature;BME280_humidity;BME280_pressure;Samples;Min_cycle;Max_cycle;Signal;HPM_P1;HPM_P2
2022/12/18 00:04:31;;;;;;;57.60;16.10;;;;;;;-4.80;97.22;100113.83;213767;1312;22770;-74
2022/12/18 00:09:34;;;;;;;56.90;14.70;;;;;;;-4.80;97.08;100118.48;213594;1302;22546;-75
2022/12/18 00:14:44;;;;;;;;;;;;;;;-4.80;97.13;100122.48;213768;1312;22506;-75
2022/12/18 00:19:45;;;;;;;53.40;15.90;;;;;;;-4.78;97.32;100119.00;213851;1312;22488;-75
2022/12/18 00:24:48;;;;;;;45.60;15.30;;;;;;;-4.77;97.02;100124.66;213719;1312;22629;-76
2022/12/18 00:29:50;;;;;;;53.20;16.80;;;;;;;-4.77;96.96;100128.48;213654;1312;22602;-75
2022/12/18 00:34:52;;;;;;;53.40;14.60;;;;;;;-4.75;97.01;100137.36;213441;1312;24334;-76
2022/12/18 00:39:53;;;;;;;51.10;16.60;;;;;;;-4.74;96.87;100147.39;213670;1311;22528;-75
2022/12/18 00:44:55;;;;;;;46.60;14.40;;;;;;;-4.73;97.01;100151.30;213687;1312;22622;-76
2022/12/18 00:49:57;;;;;;;52.10;14.30;;;;;;;-4.76;96.56;100157.34;213714;1312;25533;-76
2022/12/18 00:54:59;;;;;;;51.00;14.60;;;;;;;-4.75;96.61;100162.45;213802;1312;22524;-76
2022/12/18 01:00:10;;;;;;;60.90;17.70;;;;;;;-4.70;96.95;100161.38;213731;1312;22869;-73
2022/12/18 01:05:13;;;;;;;60.60;17.20;;;;;;;-4.66;97.09;100176.50;213798;1310;22558;-76
2022/12/18 01:10:15;;;;;;;49.60;16.30;;;;;;;-4.67;96.47;100183.46;213778;1312;24371;-75
2022/12/18 01:15:18;;;;;;;55.80;15.30;;;;;;;-4.73;96.35;100182.52;213794;1312;22532;-75
2022/12/18 01:20:20;;;;;;;47.80;15.10;;;;;;;-4.75;96.36;100180.07;213694;1312;25537;-76
2022/12/18 01:25:22;;;;;;;62.10;16.10;;;;;;;-4.74;96.59;100177.34;213613;1312;22618;-75
2022/12/18 01:30:25;;;;;;;64.10;18.40;;;;;;;-4.75;96.23;100180.20;213926;1312;22496;-75
2022/12/18 01:35:27;;;;;;;68.50;17.20;;;;;;;-4.76;96.27;100188.05;213953;1312;22572;-75
2022/12/18 01:40:29;;;;;;;47.20;13.30;;;;;;;-4.72;96.54;100194.19;213706;1312;25523;-75
2022/12/18 01:45:32;;;;;;;59.40;17.80;;;;;;;-4.73;96.36;100199.86;213434;1312;23817;-76
2022/12/18 01:50:38;;;;;;;61.90;17.10;;;;;;;-4.76;96.04;100206.61;213643;1312;22538;-75
2022/12/18 01:55:45;;;;;;;65.30;18.50;;;;;;;-4.75;96.20;100213.38;213865;1312;25539;-75
2022/12/18 02:00:47;;;;;;;53.40;15.00;;;;;;;-4.75;96.20;100222.73;213496;1312;25646;-76
2022/12/18 02:06:11;;;;;;;62.80;18.70;;;;;;;-4.76;96.35;100230.34;213643;1312;22513;-75
2022/12/18 02:11:18;;;;;;;58.60;16.60;;;;;;;-4.73;96.35;100233.73;213922;1312;23072;-74
2022/12/18 02:16:46;;;;;;;55.10;17.10;;;;;;;-4.79;95.92;100237.44;213741;1312;22785;-76
2022/12/18 02:22:02;;;;;;;69.10;18.90;;;;;;;-4.79;96.30;100243.52;213472;1312;22555;-75
2022/12/18 02:27:08;;;;;;;50.80;14.90;;;;;;;-4.72;96.70;100246.38;213905;1303;22753;-75
2022/12/18 02:32:17;;;;;;;71.10;20.00;;;;;;;-4.69;96.49;100250.61;213610;1312;22586;-75
2022/12/18 02:37:21;;;;;;;70.40;20.20;;;;;;;-4.69;96.53;100253.35;213599;1312;24195;-76
2022/12/18 02:42:24;;;;;;;71.30;17.20;;;;;;;-4.63;96.62;100245.65;213530;1312;22714;-76
2022/12/18 02:47:31;;;;;;;79.40;19.50;;;;;;;-4.69;95.97;100258.20;213797;1312;22595;-75
2022/12/18 02:52:55;;;;;;;70.60;17.70;;;;;;;-4.70;96.12;100267.80;213679;1312;22705;-76
2022/12/18 02:58:32;;;;;;;67.90;18.30;;;;;;;-4.71;96.06;100282.17;213829;1312;25601;-75
2022/12/18 03:03:47;;;;;;;85.90;20.60;;;;;;;-4.83;95.66;100293.77;213651;1312;22501;-76
2022/12/18 03:08:54;;;;;;;77.50;21.20;;;;;;;-4.87;95.82;100298.89;213752;1312;22517;-76
2022/12/18 03:13:59;;;;;;;68.00;17.90;;;;;;;-4.82;96.45;100297.90;213598;1312;22589;-75
2022/12/18 03:19:15;;;;;;;67.30;18.90;;;;;;;-4.78;96.29;100297.88;213797;1312;23327;-77
2022/12/18 03:24:20;;;;;;;65.20;16.20;;;;;;;-4.90;95.51;100302.51;213706;1312;22536;-75
2022/12/18 03:29:35;;;;;;;80.90;19.20;;;;;;;-4.99;95.73;100303.50;213716;1296;22545;-76
2022/12/18 03:34:42;;;;;;;77.10;21.40;;;;;;;-4.98;96.04;100317.86;213637;1312;25459;-75
2022/12/18 03:39:46;;;;;;;82.10;20.00;;;;;;;-5.03;95.67;100322.74;213830;1312;22598;-76
2022/12/18 03:45:10;;;;;;;107.30;23.30;;;;;;;-5.03;96.01;100316.14;213691;1312;22558;-75
2022/12/18 03:50:27;;;;;;;94.50;20.90;;;;;;;-4.92;96.72;100323.77;213792;1312;25456;-74
2022/12/18 03:55:34;;;;;;;104.20;22.70;;;;;;;-4.85;96.55;100326.74;213610;1304;22638;-74
2022/12/18 04:00:39;;;;;;;87.00;19.40;;;;;;;-4.83;96.25;100328.84;213902;1312;24487;-75
2022/12/18 04:05:43;;;;;;;90.30;20.90;;;;;;;-4.85;96.49;100338.73;213614;1312;22620;-75
2022/12/18 04:10:46;;;;;;;90.40;21.40;;;;;;;-4.93;95.89;100344.60;213657;1312;24283;-75
2022/12/18 04:15:48;;;;;;;102.50;23.20;;;;;;;-4.96;96.07;100351.56;213757;1297;22624;-74
2022/12/18 04:20:51;;;;;;;85.80;18.60;;;;;;;-4.94;96.38;100351.46;213758;1312;22525;-76
2022/12/18 04:25:54;;;;;;;100.80;21.90;;;;;;;-4.96;96.19;100351.66;213850;1312;23138;-76
2022/12/18 04:31:08;;;;;;;103.90;24.00;;;;;;;-4.92;96.48;100357.71;213750;1312;22603;-75
2022/12/18 04:36:12;;;;;;;109.50;22.50;;;;;;;-4.91;96.36;100359.22;213593;1312;22938;-75
2022/12/18 04:41:14;;;;;;;112.40;25.60;;;;;;;-4.88;96.51;100363.08;213692;1312;24385;-74
2022/12/18 04:46:17;;;;;;;104.90;24.20;;;;;;;-4.84;96.43;100374.19;213713;1312;23174;-74
2022/12/18 04:51:19;;;;;;;98.20;20.50;;;;;;;-4.85;96.06;100387.05;213687;1313;22604;-76
2022/12/18 04:56:27;;;;;;;112.50;23.40;;;;;;;-4.87;96.13;100396.27;213627;1312;23955;-76
2022/12/18 05:01:29;;;;;;;101.70;22.80;;;;;;;-4.83;96.37;100399.36;213795;1297;24326;-76
2022/12/18 05:06:35;;;;;;;113.90;23.80;;;;;;;-4.79;96.39;100408.63;213835;1312;24102;-75
2022/12/18 05:11:37;;;;;;;111.30;22.90;;;;;;;-4.75;96.39;100407.39;213681;1312;24179;-75
2022/12/18 05:16:39;;;;;;;98.80;21.30;;;;;;;-4.79;96.23;100416.14;213880;1312;22518;-76
2022/12/18 05:21:41;;;;;;;100.20;23.10;;;;;;;-4.90;95.69;100417.67;213752;1312;22712;-75
2022/12/18 05:26:43;;;;;;;135.60;28.60;;;;;;;-4.94;95.91;100411.50;213809;1312;22652;-76
2022/12/18 05:31:45;;;;;;;115.80;25.40;;;;;;;-4.92;96.30;100412.81;213706;1312;24377;-76
2022/12/18 05:36:47;;;;;;;104.90;21.60;;;;;;;-4.95;96.00;100421.69;213594;1313;26095;-75
2022/12/18 05:41:48;;;;;;;104.60;22.20;;;;;;;-4.96;96.06;100428.35;213745;1312;24279;-75
2022/12/18 05:46:50;;;;;;;104.90;21.60;;;;;;;-4.97;96.12;100436.83;213859;1312;22572;-75
2022/12/18 05:51:52;;;;;;;95.00;20.20;;;;;;;-5.05;95.72;100441.22;213812;1312;25576;-75
2022/12/18 05:56:54;;;;;;;108.50;23.00;;;;;;;-5.10;95.69;100443.12;213621;1312;23115;-76
2022/12/18 06:01:56;;;;;;;79.20;18.70;;;;;;;-5.07;96.23;100444.92;213796;1312;22597;-76
2022/12/18 06:06:58;;;;;;;81.20;19.20;;;;;;;-5.12;95.90;100450.73;213788;1312;22497;-76
2022/12/18 06:12:00;;;;;;;93.20;20.40;;;;;;;-5.20;95.71;100447.73;213797;1312;23989;-77
2022/12/18 06:17:02;;;;;;;77.50;18.40;;;;;;;-5.25;95.95;100453.71;213754;1312;22536;-76
2022/12/18 06:22:04;;;;;;;90.70;20.80;;;;;;;-5.27;95.88;100455.14;213884;1312;22926;-75
2022/12/18 06:27:05;;;;;;;81.80;21.00;;;;;;;-5.26;96.06;100462.55;213644;1312;24258;-75
2022/12/18 06:32:08;;;;;;;68.10;19.30;;;;;;;-5.28;95.87;100473.56;213585;1312;24241;-76
2022/12/18 06:37:10;;;;;;;82.80;20.60;;;;;;;-5.30;95.96;100481.35;213630;1312;25632;-75
2022/12/18 06:42:12;;;;;;;70.20;17.00;;;;;;;-5.28;96.19;100489.40;213707;1312;22541;-76
2022/12/18 06:47:14;;;;;;;77.70;21.20;;;;;;;-5.26;96.03;100496.52;213690;1312;22775;-75
2022/12/18 06:52:16;;;;;;;79.20;21.20;;;;;;;-5.21;96.28;100502.13;213783;1312;22526;-76
2022/12/18 06:57:18;;;;;;;98.20;25.00;;;;;;;-5.17;96.30;100506.60;213651;1312;25520;-76
2022/12/18 07:02:19;;;;;;;88.60;23.70;;;;;;;-5.09;96.35;100513.59;213803;1312;22619;-75
2022/12/18 07:07:22;;;;;;;85.70;24.70;;;;;;;-5.05;96.34;100517.37;213637;1312;25044;-75
2022/12/18 07:12:23;;;;;;;84.10;20.80;;;;;;;-5.00;96.39;100520.91;213447;1312;22511;-75
2022/12/18 07:17:26;;;;;;;78.30;20.20;;;;;;;-4.96;96.01;100527.74;213848;1312;22679;-76
2022/12/18 07:22:27;;;;;;;71.70;21.30;;;;;;;-4.97;95.84;100526.59;213599;1312;22652;-75
2022/12/18 07:27:29;;;;;;;76.40;20.40;;;;;;;-4.95;95.87;100528.26;213818;1312;23030;-75
2022/12/18 07:32:31;;;;;;;77.30;21.60;;;;;;;-4.89;96.08;100541.30;213775;1312;22732;-76
2022/12/18 07:37:33;;;;;;;96.60;24.80;;;;;;;-4.76;96.23;100541.98;213697;1312;22508;-76
2022/12/18 07:42:36;;;;;;;99.90;26.50;;;;;;;-4.67;96.27;100543.42;213883;1312;23240;-75
2022/12/18 07:47:40;;;;;;;95.50;25.40;;;;;;;-4.57;96.08;100548.26;213779;1312;22507;-76
2022/12/18 07:52:42;;;;;;;96.30;25.50;;;;;;;-4.49;95.75;100545.98;213859;1312;23386;-75
2022/12/18 07:57:45;;;;;;;84.40;22.10;;;;;;;-4.39;95.84;100548.15;213850;1312;22675;-76
2022/12/18 08:02:53;;;;;;;87.20;24.40;;;;;;;-4.45;94.91;100545.54;213742;1312;23091;-76
2022/12/18 08:07:56;;;;;;;89.20;25.00;;;;;;;-4.54;94.82;100553.25;213754;1312;22517;-74
2022/12/18 08:12:57;;;;;;;95.10;26.50;;;;;;;-4.29;96.12;100555.91;213742;1311;23076;-75
2022/12/18 08:18:05;;;;;;;102.20;29.30;;;;;;;-3.92;95.95;100559.36;213645;1312;26437;-76
2022/12/18 08:23:14;;;;;;;100.30;27.80;;;;;;;-3.96;94.88;100562.34;213621;1312;22654;-76
2022/12/18 08:28:17;;;;;;;108.90;30.90;;;;;;;-4.06;94.63;100571.54;213803;1310;23132;-74
2022/12/18 08:33:18;;;;;;;92.60;26.80;;;;;;;-4.09;94.82;100575.16;213873;1312;25505;-75
2022/12/18 08:38:20;;;;;;;94.00;25.60;;;;;;;-4.16;94.47;100581.02;213862;1303;26783;-74
2022/12/18 08:48:43;;;;;;;77.80;22.60;;;;;;;-4.14;94.51;100595.60;213821;1312;25464;-75
2022/12/18 08:53:46;;;;;;;78.80;23.50;;;;;;;-4.13;94.04;100606.73;213691;1312;23895;-75
2022/12/18 08:58:52;;;;;;;59.40;17.90;;;;;;;-4.13;93.75;100611.02;213847;1305;22756;-75
2022/12/18 09:03:53;;;;;;;66.80;18.60;;;;;;;-4.23;92.81;100614.14;213799;1312;22685;-75
2022/12/18 09:08:57;;;;;;;80.90;23.30;;;;;;;-4.17;93.75;100613.33;213877;1312;22640;-73
2022/12/18 09:14:00;;;;;;;56.80;17.50;;;;;;;-3.97;94.06;100615.52;213645;1312;22664;-76
2022/12/18 09:19:04;;;;;;;80.10;23.00;;;;;;;-3.86;93.51;100626.15;213792;1312;22498;-75
2022/12/18 09:24:06;;;;;;;75.00;22.00;;;;;;;-3.80;93.43;100625.51;213525;1312;22816;-76
2022/12/18 09:29:09;;;;;;;75.30;22.40;;;;;;;-3.71;93.47;100626.59;213675;1312;22643;-76
2022/12/18 09:34:12;;;;;;;65.00;19.00;;;;;;;-3.59;93.38;100620.70;213690;1312;22495;-74
2022/12/18 09:39:14;;;;;;;52.20;14.70;;;;;;;-3.50;92.98;100621.90;213712;1312;22558;-75
2022/12/18 09:44:36;;;;;;;59.80;19.80;;;;;;;-3.50;92.18;100620.89;213885;1312;23014;-74
2022/12/18 09:49:49;;;;;;;78.90;23.60;;;;;;;-3.40;92.71;100612.59;213872;1312;22504;-76
2022/12/18 09:54:59;;;;;;;74.70;22.00;;;;;;;-3.20;93.00;100616.23;213703;1312;22610;-76
2022/12/18 10:00:21;;;;;;;65.20;19.00;;;;;;;-2.97;92.63;100622.13;213679;1312;24313;-75
2022/12/18 10:05:43;;;;;;;60.20;20.70;;;;;;;-2.76;92.40;100621.98;213594;1312;22643;-76
2022/12/18 10:11:10;;;;;;;64.20;22.40;;;;;;;-2.55;92.35;100617.56;213713;1312;22503;-75
2022/12/18 10:16:41;;;;;;;58.70;19.50;;;;;;;-2.47;91.81;100615.34;213673;1312;24345;-76
2022/12/18 10:22:13;;;;;;;57.90;19.00;;;;;;;-2.56;91.20;100601.95;213613;1312;25340;-74
2022/12/18 10:27:21;;;;;;;66.80;22.00;;;;;;;-2.63;90.90;100606.80;213770;1312;23061;-75
2022/12/18 10:32:26;;;;;;;67.00;21.00;;;;;;;-2.66;90.38;100598.92;213656;1312;24272;-77
2022/12/18 10:37:29;;;;;;;65.30;19.20;;;;;;;-2.61;90.45;100592.80;213764;1312;24376;-77
2022/12/18 10:42:31;;;;;;;47.60;16.40;;;;;;;-2.55;90.29;100589.40;213632;1312;96556;-75
2022/12/18 10:47:34;;;;;;;62.90;19.50;;;;;;;-2.46;90.28;100582.70;213814;1312;25579;-76
2022/12/18 10:52:36;;;;;;;59.50;18.90;;;;;;;-2.40;90.04;100578.36;213550;1312;23361;-76
2022/12/18 10:57:44;;;;;;;54.70;18.50;;;;;;;-2.44;89.63;100580.41;213780;1312;22635;-76
2022/12/18 11:02:46;;;;;;;49.00;16.90;;;;;;;-2.56;88.83;100575.97;213770;1312;22944;-76
2022/12/18 11:07:50;;;;;;;45.70;15.20;;;;;;;-2.66;88.88;100565.01;213730;1312;24850;-76
2022/12/18 11:12:52;;;;;;;50.00;18.50;;;;;;;-2.80;88.54;100560.98;213867;1311;22492;-75
2022/12/18 11:17:54;;;;;;;55.20;18.50;;;;;;;-2.83;88.77;100557.48;213723;1312;23777;-75
2022/12/18 11:23:05;;;;;;;52.70;18.30;;;;;;;-2.84;88.71;100560.85;213738;1312;24289;-76
2022/12/18 11:28:29;;;;;;;58.10;18.60;;;;;;;-2.92;88.70;100567.05;214010;1312;22496;-76
2022/12/18 11:33:31;;;;;;;45.90;18.60;;;;;;;-2.93;88.54;100572.60;213843;1312;22499;-76
2022/12/18 11:38:37;;;;;;;60.40;20.30;;;;;;;-3.04;88.35;100581.97;213835;1312;26656;-76
2022/12/18 11:43:54;;;;;;;59.50;18.90;;;;;;;-3.07;88.62;100582.90;213642;1312;25067;-75
2022/12/18 11:49:04;;;;;;;66.90;21.80;;;;;;;-2.95;88.97;100588.02;213725;1312;25519;-76
2022/12/18 11:54:13;;;;;;;67.20;22.00;;;;;;;-2.88;88.88;100586.27;213675;1312;26665;-77
2022/12/18 11:59:25;;;;;;;62.10;21.00;;;;;;;-2.84;88.63;100591.25;213823;1312;22474;-75
2022/12/18 12:04:40;;;;;;;68.20;20.50;;;;;;;-2.79;88.49;100591.83;213897;1312;22704;-76
2022/12/18 12:09:57;;;;;;;62.20;23.40;;;;;;;-2.76;88.38;100592.17;213658;1310;22488;-77
2022/12/18 12:15:37;;;;;;;65.90;22.90;;;;;;;-2.62;88.98;100598.50;213837;1312;22483;-77
2022/12/18 12:20:52;;;;;;;67.40;22.10;;;;;;;-2.55;88.96;100592.44;213658;1312;22743;-74
2022/12/18 12:26:12;;;;;;;71.70;23.80;;;;;;;-2.59;88.22;100606.23;213787;1312;22761;-76
2022/12/18 12:31:43;;;;;;;62.30;22.80;;;;;;;-2.65;88.00;100613.79;213774;1312;24510;-76
2022/12/18 12:37:20;;;;;;;81.50;29.80;;;;;;;-2.74;87.85;100613.04;213714;1312;22605;-76
2022/12/18 12:48:03;;;;;;;71.50;26.20;;;;;;;-2.85;88.19;100629.11;213644;1312;22517;-76
2022/12/18 12:53:14;;;;;;;71.10;25.60;;;;;;;-2.89;88.28;100618.90;213816;1312;25387;-77
2022/12/18 12:58:33;;;;;;;79.20;26.60;;;;;;;-2.99;88.05;100611.66;213905;1308;22506;-76
2022/12/18 13:04:03;;;;;;;69.00;25.00;;;;;;;-3.06;88.06;100610.66;213841;1312;23406;-75
2022/12/18 13:09:05;;;;;;;70.50;25.60;;;;;;;-3.21;87.76;100615.23;213923;1312;25229;-75
2022/12/18 13:14:24;;;;;;;71.60;23.70;;;;;;;-3.31;87.97;100619.86;213797;1312;24852;-74
2022/12/18 13:19:26;;;;;;;83.00;27.20;;;;;;;-3.42;87.86;100626.23;213751;1312;22514;-75
2022/12/18 13:24:31;;;;;;;85.80;28.60;;;;;;;-3.48;88.10;100629.61;213731;1298;25704;-76
2022/12/18 13:29:45;;;;;;;89.40;29.00;;;;;;;-3.55;87.89;100633.61;214030;1306;22738;-76
2022/12/18 13:34:48;;;;;;;85.00;28.90;;;;;;;-3.61;88.05;100634.70;213570;1313;25499;-76
2022/12/18 13:39:50;;;;;;;84.50;27.40;;;;;;;-3.69;87.95;100633.95;213437;1313;26807;-75
2022/12/18 13:44:52;;;;;;;94.80;32.10;;;;;;;-3.83;87.89;100633.19;213688;1313;22970;-75
2022/12/18 13:49:54;;;;;;;88.80;31.70;;;;;;;-3.94;88.08;100628.26;213501;1309;22588;-74
2022/12/18 13:55:02;;;;;;;93.40;32.70;;;;;;;-4.06;88.20;100622.61;213627;1313;23413;-75
2022/12/18 14:00:23;;;;;;;91.80;32.70;;;;;;;-4.22;87.99;100619.27;213806;1313;24272;-75
2022/12/18 14:05:31;;;;;;;89.20;31.50;;;;;;;-4.41;87.88;100618.23;213414;1313;25324;-74
2022/12/18 14:10:33;;;;;;;96.70;33.90;;;;;;;-4.59;87.84;100618.04;213610;1313;25638;-74
2022/12/18 14:15:51;;;;;;;99.30;31.80;;;;;;;-4.77;88.08;100620.60;213639;1308;22712;-75
2022/12/18 14:20:59;;;;;;;90.00;32.30;;;;;;;-4.93;88.11;100621.86;213356;1313;22750;-75
2022/12/18 14:26:03;;;;;;;97.90;33.60;;;;;;;-5.10;87.97;100626.35;213854;1313;24286;-76
2022/12/18 14:31:18;;;;;;;93.90;32.60;;;;;;;-5.28;88.10;100625.02;213944;1312;22564;-75
2022/12/18 14:36:23;;;;;;;112.00;37.50;;;;;;;-5.49;88.06;100622.77;213929;1312;26731;-74
2022/12/18 14:41:26;;;;;;;122.30;37.30;;;;;;;-5.71;88.21;100629.09;213775;1312;22508;-75
2022/12/18 14:46:35;;;;;;;123.60;41.30;;;;;;;-5.90;88.52;100639.77;213652;1312;22565;-75
2022/12/18 14:51:37;;;;;;;121.30;39.20;;;;;;;-6.06;88.72;100643.09;213882;1312;22473;-75
2022/12/18 14:56:46;;;;;;;121.80;38.40;;;;;;;-6.22;89.06;100649.03;213661;1301;23187;-75
2022/12/18 15:02:01;;;;;;;124.60;40.70;;;;;;;-6.35;89.39;100654.34;213691;1312;22500;-74
2022/12/18 15:07:04;;;;;;;138.00;48.00;;;;;;;-6.53;89.09;100658.64;213857;1312;23616;-75
2022/12/18 15:12:24;;;;;;;113.40;43.50;;;;;;;-6.72;89.01;100663.85;213799;1306;22599;-74
2022/12/18 15:17:26;;;;;;;106.70;38.30;;;;;;;-6.93;88.90;100664.20;213474;1312;25287;-75
2022/12/18 15:22:37;;;;;;;109.20;39.80;;;;;;;-7.14;88.72;100669.98;213698;1312;24472;-75
2022/12/18 15:27:46;;;;;;;131.40;43.70;;;;;;;-7.34;88.72;100671.75;213730;1311;24641;-75
2022/12/18 15:32:49;;;;;;;120.30;43.20;;;;;;;-7.55;88.78;100678.47;213436;1313;25395;-75
2022/12/18 15:37:52;;;;;;;130.10;43.90;;;;;;;-7.77;89.02;100672.58;213603;1307;22996;-74
2022/12/18 15:48:22;;;;;;;127.30;44.50;;;;;;;-7.99;89.65;100697.40;213532;1313;25804;-75
2022/12/18 15:53:29;;;;;;;122.00;45.20;;;;;;;-8.10;89.89;100703.78;213351;1313;22970;-74
2022/12/18 15:58:31;;;;;;;164.00;59.60;;;;;;;-8.20;90.03;100704.05;213649;1307;22957;-75
2022/12/18 16:03:32;;;;;;;116.60;41.60;;;;;;;-8.30;90.25;100696.86;213624;1313;22586;-75
2022/12/18 16:08:34;;;;;;;106.20;40.10;;;;;;;-8.38;90.44;100699.54;213798;1313;25452;-75
2022/12/18 16:13:36;;;;;;;110.10;40.00;;;;;;;-8.45;90.51;100700.40;213662;1313;25505;-75
2022/12/18 16:18:39;;;;;;;122.50;42.80;;;;;;;-8.55;90.38;100707.95;213705;1313;22642;-74
2022/12/18 16:23:41;;;;;;;108.70;42.40;;;;;;;-8.67;90.26;100707.33;213656;1313;22530;-74
2022/12/18 16:28:43;;;;;;;112.70;43.70;;;;;;;-8.79;90.19;100701.44;213789;1312;22658;-73
2022/12/18 16:33:49;;;;;;;125.60;43.60;;;;;;;-8.93;89.92;100703.89;213840;1311;25623;-74
2022/12/18 16:38:51;;;;;;;151.10;51.00;;;;;;;-9.05;90.19;100697.50;213686;1312;25983;-74
2022/12/18 16:43:53;;;;;;;145.60;49.70;;;;;;;-9.13;90.48;100695.13;213784;1310;24259;-75
2022/12/18 16:48:59;;;;;;;129.30;51.00;;;;;;;-9.24;90.20;100693.86;213902;1312;25411;-75
2022/12/18 16:54:01;;;;;;;142.60;48.40;;;;;;;-9.39;89.87;100677.13;213760;1308;22703;-75
2022/12/18 16:59:12;;;;;;;142.50;50.60;;;;;;;-9.55;89.61;100672.92;213514;1312;25200;-74
2022/12/18 17:04:15;;;;;;;131.00;51.20;;;;;;;-9.76;89.38;100664.52;213720;1312;24259;-74
2022/12/18 17:09:24;;;;;;;124.60;48.90;;;;;;;-9.94;89.09;100657.73;213911;1312;23627;-75
2022/12/18 17:14:26;;;;;;;133.10;45.10;;;;;;;-10.12;89.04;100654.27;213785;1311;22472;-75
2022/12/18 17:19:28;;;;;;;140.90;48.60;;;;;;;-10.29;89.16;100654.08;213912;1312;22662;-75
2022/12/18 17:24:30;;;;;;;121.40;45.00;;;;;;;-10.40;89.58;100654.23;213546;1312;24263;-74
2022/12/18 17:29:36;;;;;;;130.80;48.80;;;;;;;-10.53;89.68;100647.48;213893;1312;23774;-75
2022/12/18 17:34:45;;;;;;;156.10;54.00;;;;;;;-10.61;90.06;100658.61;213983;1312;22535;-74
2022/12/18 17:39:47;;;;;;;157.70;53.90;;;;;;;-10.65;90.39;100663.17;213821;1312;22522;-74
2022/12/18 17:44:49;;;;;;;170.00;59.70;;;;;;;-10.69;90.55;100665.34;213789;1312;25392;-75
2022/12/18 17:49:51;;;;;;;166.60;58.60;;;;;;;-10.78;90.26;100659.23;213805;1307;22566;-75
2022/12/18 17:54:54;;;;;;;150.90;52.50;;;;;;;-10.92;89.85;100658.41;213861;1311;22967;-74
2022/12/18 17:59:56;;;;;;;106.30;38.70;;;;;;;-11.02;89.82;100662.23;213810;1312;25443;-75
2022/12/18 18:04:57;;;;;;;138.40;46.40;;;;;;;-11.13;89.98;100666.90;213720;1312;24549;-74
2022/12/18 18:09:59;;;;;;;112.50;39.10;;;;;;;-11.26;89.88;100668.98;213722;1312;24396;-75
2022/12/18 18:15:01;;;;;;;92.80;36.50;;;;;;;-11.37;89.97;100665.00;213843;1312;22506;-74
2022/12/18 18:20:05;;;;;;;90.70;33.30;;;;;;;-11.45;90.20;100672.73;213661;1312;22665;-74
2022/12/18 18:25:08;;;;;;;106.30;39.00;;;;;;;-11.54;90.11;100670.59;213705;1312;25382;-75
2022/12/18 18:30:11;;;;;;;97.80;35.70;;;;;;;-11.60;90.25;100671.80;213647;1293;22603;-75
2022/12/18 18:35:13;;;;;;;93.80;33.90;;;;;;;-11.61;90.71;100679.64;213513;1312;22528;-76
2022/12/18 18:40:35;;;;;;;69.70;26.80;;;;;;;-11.58;91.20;100674.47;213864;1312;23939;-75
2022/12/18 18:45:37;;;;;;;92.00;33.20;;;;;;;-11.47;91.78;100685.95;213888;1312;22729;-75
2022/12/18 18:50:42;;;;;;;81.50;28.10;;;;;;;-11.37;91.75;100697.80;213800;1307;22923;-74
2022/12/18 18:55:44;;;;;;;98.40;30.30;;;;;;;-11.34;92.01;100718.44;213769;1312;25320;-75
2022/12/18 19:01:04;;;;;;;86.60;32.20;;;;;;;-11.33;92.30;100719.79;213938;1312;24245;-75
2022/12/18 19:06:08;;;;;;;70.30;27.10;;;;;;;-11.30;92.34;100713.73;213772;1312;24138;-74
2022/12/18 19:16:38;;;;;;;76.90;30.90;;;;;;;-11.09;92.74;100717.38;213830;1311;24431;-74
2022/12/18 19:21:40;;;;;;;70.50;27.30;;;;;;;-11.03;92.79;100716.13;213717;1312;22523;-73
2022/12/18 19:26:42;;;;;;;76.90;27.70;;;;;;;-11.03;92.77;100722.85;213892;1312;22467;-74
2022/12/18 19:31:44;;;;;;;84.00;28.00;;;;;;;-11.06;92.78;100733.55;213830;1313;24361;-73
2022/12/18 19:36:47;;;;;;;76.00;28.60;;;;;;;-11.11;92.58;100728.90;213619;1313;21702;-74
2022/12/18 19:41:50;;;;;;;72.90;26.20;;;;;;;-11.19;92.32;100722.30;213701;1313;22918;-73
2022/12/18 19:46:52;;;;;;;55.80;19.60;;;;;;;-11.30;91.91;100714.75;213798;1313;24303;-73
2022/12/18 19:51:54;;;;;;;69.90;27.60;;;;;;;-11.46;91.32;100715.96;213795;1313;24324;-73
2022/12/18 19:56:56;;;;;;;79.90;30.30;;;;;;;-11.57;91.37;100713.84;213616;1313;22439;-73
2022/12/18 20:01:58;;;;;;;75.70;30.50;;;;;;;-11.62;91.61;100715.08;213774;1313;22513;-75
2022/12/18 20:07:00;;;;;;;86.10;31.00;;;;;;;-11.64;91.90;100709.70;213643;1313;23226;-74
2022/12/18 20:12:03;;;;;;;75.50;25.50;;;;;;;-11.69;91.86;100705.67;213785;1313;22983;-74
2022/12/18 20:17:04;;;;;;;74.20;30.50;;;;;;;-11.71;92.01;100706.66;213713;1313;22445;-75
2022/12/18 20:22:07;;;;;;;81.80;29.60;;;;;;;-11.66;92.26;100708.08;213474;1313;25314;-75
2022/12/18 20:27:09;;;;;;;71.80;24.70;;;;;;;-11.57;92.73;100702.15;213778;1312;26863;-76
2022/12/18 20:32:18;;;;;;;62.00;24.00;;;;;;;-11.53;92.53;100695.87;213857;1312;23751;-75
2022/12/18 20:37:20;;;;;;;67.70;24.20;;;;;;;-11.45;93.03;100692.94;213889;1312;22198;-74
2022/12/18 20:42:22;;;;;;;60.30;22.10;;;;;;;-11.35;92.99;100692.46;213804;1312;25278;-74
2022/12/18 20:47:25;;;;;;;53.60;23.20;;;;;;;-11.28;93.07;100683.41;213910;1312;25746;-75
2022/12/18 20:52:27;;;;;;;60.40;21.50;;;;;;;-11.25;93.10;100678.57;213947;1312;25301;-76
2022/12/18 20:57:29;;;;;;;53.30;22.60;;;;;;;-11.22;92.98;100672.98;213807;1312;22466;-75
2022/12/18 21:02:31;;;;;;;52.80;21.60;;;;;;;-11.14;93.19;100677.69;213968;1312;24299;-74
2022/12/18 21:07:33;;;;;;;33.10;15.10;;;;;;;-11.07;93.47;100676.14;213739;1312;25396;-74
2022/12/18 21:12:38;;;;;;;55.40;20.50;;;;;;;-11.02;93.33;100673.05;213728;1312;26429;-74
2022/12/18 21:17:59;;;;;;;45.10;18.10;;;;;;;-11.01;93.24;100673.14;213598;1312;22501;-74
2022/12/18 21:23:02;;;;;;;50.90;19.00;;;;;;;-11.01;93.26;100671.98;213916;1312;25345;-73
2022/12/18 21:28:16;;;;;;;47.20;18.40;;;;;;;-11.03;93.11;100661.76;213843;1312;23550;-74
2022/12/18 21:33:18;;;;;;;51.90;19.70;;;;;;;-11.07;92.96;100659.77;213799;1312;22465;-74
2022/12/18 21:38:20;;;;;;;49.70;18.60;;;;;;;-11.08;93.31;100663.09;213768;1312;22557;-74
2022/12/18 21:48:42;;;;;;;55.30;18.30;;;;;;;-10.84;93.87;100665.01;213728;1312;22495;-75
2022/12/18 21:53:44;;;;;;;44.90;17.40;;;;;;;-10.70;93.99;100665.63;213721;1306;22479;-75
2022/12/18 21:58:50;;;;;;;38.40;17.80;;;;;;;-10.51;94.42;100666.36;213918;1312;23318;-73
2022/12/18 22:03:58;;;;;;;44.40;16.80;;;;;;;-10.35;94.22;100668.92;213713;1312;22494;-73
2022/12/18 22:09:00;;;;;;;37.40;16.30;;;;;;;-10.30;93.91;100665.91;213757;1312;22073;-73
2022/12/18 22:14:05;;;;;;;33.20;14.80;;;;;;;-10.32;93.64;100669.70;213790;1312;22576;-75
2022/12/18 22:19:10;;;;;;;39.60;16.40;;;;;;;-10.30;93.79;100673.90;213901;1312;22490;-74
2022/12/18 22:24:15;;;;;;;53.80;20.80;;;;;;;-10.31;93.62;100667.89;213668;1312;22556;-75
2022/12/18 22:34:42;;;;;;;45.90;16.40;;;;;;;-10.25;93.83;100662.83;213723;1312;25333;-74
2022/12/18 22:39:44;;;;;;;50.50;19.30;;;;;;;-10.23;93.77;100664.10;213810;1312;22523;-73
2022/12/18 22:44:46;;;;;;;60.90;19.10;;;;;;;-10.22;93.64;100662.05;213632;1312;258954;-73
2022/12/18 22:49:48;;;;;;;46.50;18.50;;;;;;;-10.24;93.49;100658.08;213680;1312;21968;-77
2022/12/18 22:54:50;;;;;;;42.70;16.30;;;;;;;-10.27;93.48;100653.77;213753;1312;23356;-74
2022/12/18 22:59:54;;;;;;;49.90;22.10;;;;;;;-10.30;93.48;100663.33;213819;1312;25110;-73
2022/12/18 23:04:56;;;;;;;55.00;21.40;;;;;;;-10.27;93.72;100667.33;213968;1312;22517;-73
2022/12/18 23:09:58;;;;;;;60.90;21.50;;;;;;;-10.25;93.94;100659.58;213904;1312;22637;-75
2022/12/18 23:15:03;;;;;;;62.90;23.40;;;;;;;-10.26;93.72;100669.10;213810;1312;24311;-74
2022/12/18 23:20:06;;;;;;;60.40;23.50;;;;;;;-10.24;93.87;100668.95;213800;1312;24410;-73